Carlos Aravena

Scout - O'Higgins
9 Dez 2027
Donnerstag
Verarbeitung

Persönlichkeit

Anpassungsfähigkeit (2) Ehrgeiz (15) Kontroverse (14) Loyalität (15) Druck (7) Professionalität (20) Fairness (19) Temperament (4)

Profil

Trainerstil Demokratisch
Lizenz Nationale B
Entschlossenheit 5
Menschenführung 5
Motivation 11
Disziplin 8
Arbeitszufriedenheit
100%
Ermüdung
0%
Rolle Scout
Gehalt 74.8K p/W
Vertrag 14.03.2028

Leistung

Verhalten Gut
Trainingseffektivität
44%
Spielerentwicklung
55%
Verletzungsprävention
50%
Taktische Umsetzung
40%

Letzte Ereignisse

Nahm an einer Scouting-Besprechung teil jetzt
Spieler begutachtet 7T her
Nahm an einer Scouting-Besprechung teil 7T her
Empfahl ein Transferziel 7T her
Nahm an einer Scouting-Besprechung teil 7T her
Spieler begutachtet 7T her
Legte dem Vorstand ein Dossier vor 7T her
Legte dem Vorstand ein Dossier vor 7T her

Aktuell beobachtet

233
Spieler Verein Status Fähigkeit Vertrauen Beobachtet Zuletzt beobachtet Letzte Stimme
Marcos Camarda Santiago Wanderers Verloren 110 / 107 69% 1 01.12.2027 -
Alan Cantero Alianza Lima Aktiv 124 / 128 40% 1 30.11.2027 -
Eric Ramírez Llaneros Aktiv 111 / 105 40% 1 30.11.2027 -
Leonardo Campana New England Revolution Aktiv 129 / 135 40% 1 30.11.2027 -
Hervin Goyes Deportivo Pasto Aktiv 110 / 101 40% 3 29.11.2027 -
Cristian Florez Cortulua Aktiv 95 / 99 40% 2 29.11.2027 -
Joel Ezra Enyimba Aktiv 107 / 110 40% 2 29.11.2027 -
Santiago López Independiente Aktiv 127 / 135 40% 3 28.11.2027 -
Franco Tejera Oriental Aktiv 71 / 76 40% 2 28.11.2027 -
Ryunosuke Sato Valencia Aktiv 139 / 133 40% 1 28.11.2027 -
Wilfred Correa Caracas Aktiv 97 / 89 40% 3 25.11.2027 -
Emiliano Zambrano Gimnasia y Esgrima Aktiv 99 / 105 40% 2 25.11.2027 -
José Caldera Deportivo Cali Aktiv 117 / 113 40% 2 21.11.2027 -
Alex Amaefula Kun Khalifat Aktiv 76 / 87 40% 3 21.11.2027 -
Anderson Angulo Deportes Tolima Aktiv 128 / 113 40% 4 21.11.2027 -
José Ortiz Atletico Bucaramanga Aktiv 124 / 128 40% 3 21.11.2027 -
Santino Carrizo Chacarita Juniors Aktiv 83 / 88 40% 2 21.11.2027 -
Mustapha Umar Kano Pillars Aktiv 93 / 92 40% 2 20.11.2027 -
Tomás Aranda Boca Juniors Aktiv 111 / 122 40% 1 20.11.2027 -
Facundo Martínez Montevideo City Torque Aktiv 81 / 89 40% 1 20.11.2027 -
Cristian Graciano Junior Aktiv 115 / 110 40% 3 18.11.2027 -
Esneyder Mena Deportivo Pasto Aktiv 118 / 114 40% 2 18.11.2027 -
Jan Carlos Ángulo Deportes Tolima Aktiv 124 / 116 40% 6 17.11.2027 -
Ronaldo Lora Real Cartagena Aktiv 120 / 106 40% 2 17.11.2027 -
Dylan Lozano Aguilas Doradas Aktiv 106 / 119 40% 2 17.11.2027 -
Mateo Mendoza Godoy Cruz Aktiv 126 / 128 40% 5 16.11.2027 -
Juan Camilo Mosquera Atletico Bucaramanga Aktiv 109 / 125 40% 3 16.11.2027 -
Joaquín Varela Independiente Medellin Aktiv 116 / 129 40% 2 16.11.2027 -
Mateo Castillo Millonarios Aktiv 129 / 118 40% 3 15.11.2027 -
Yílmar Velásquez Santa Fe Aktiv 128 / 130 40% 5 15.11.2027 -
Ralph Orquin Seattle Sounders Aktiv 127 / 118 40% 1 15.11.2027 -
Junior Hernández Deportes Tolima Aktiv 124 / 115 40% 4 14.11.2027 -
Brian Calderara Chacarita Juniors Aktiv 121 / 125 40% 1 14.11.2027 -
Nahuel Herrera Penarol Aktiv 128 / 133 40% 1 14.11.2027 -
Jermein Peña Junior Aktiv 125 / 132 40% 2 13.11.2027 -
Luis Olivera Defensores Unidos Aktiv 117 / 121 40% 2 13.11.2027 -
Alfredo Giraldo La Equidad Aktiv 134 / 123 40% 2 13.11.2027 -
Bryan Rovira Deportes Tolima Aktiv 119 / 126 40% 2 12.11.2027 -
Samuel Velásquez Atletico Nacional Aktiv 125 / 114 40% 2 12.11.2027 -
Nicolás Tripichio San Lorenzo Aktiv 127 / 114 40% 1 12.11.2027 -
Mateo Silvetti Los Angeles Football Club Aktiv 125 / 132 40% 4 10.11.2027 -
Daniel Ferraresi Llaneros Aktiv 77 / 93 40% 2 10.11.2027 -
Luis Vidal Deportivo Pereira Aktiv 87 / 89 40% 3 10.11.2027 -
Lucas Carrizo Newell's Old Boys Aktiv 125 / 118 40% 1 10.11.2027 -
Bruno Leyes Godoy Cruz Aktiv 131 / 128 40% 3 07.11.2027 -
Sasha Marcich Lanús Aktiv 129 / 119 40% 2 07.11.2027 -
Francisco Facello Chacarita Juniors Aktiv 118 / 120 40% 1 07.11.2027 -
Gonzalo Abrego Godoy Cruz Aktiv 123 / 121 40% 4 05.11.2027 -
Emiliano Álvarez Progreso Aktiv 129 / 116 40% 1 05.11.2027 -
Santiago Jiménez Deportivo Pasto Aktiv 120 / 119 40% 3 03.11.2027 -
Eber Moreno Deportivo Pereira Aktiv 110 / 111 40% 2 03.11.2027 -
Juan Saborido Platense Aktiv 128 / 125 40% 1 03.11.2027 -
Juan Camilo Córdoba Deportivo Pereira Aktiv 84 / 93 40% 1 03.11.2027 -
Sebastián Ramírez Jaguares Aktiv 101 / 117 40% 3 02.11.2027 -
Tiziano Cabrera Central Norte Aktiv 91 / 104 40% 3 02.11.2027 -
Matías Canedo Rampla Juniors Aktiv 86 / 93 40% 1 02.11.2027 -
Gustavo Lozano Metropolitanos Aktiv 88 / 93 40% 2 01.11.2027 -
David Valencia Alianza Petrolera Aktiv 131 / 135 40% 3 31.10.2027 -
Mauro Carrizo Atlético Tucumán Aktiv 96 / 114 40% 1 31.10.2027 -
Oscar Otero Atletico Venezuela Aktiv 99 / 102 40% 2 30.10.2027 -
Alfie James Ventforet Kofu Aktiv 93 / 84 40% 2 30.10.2027 -
Walter Juárez Güemes Aktiv 110 / 104 40% 1 27.10.2027 -
Nicolás Paz San Martín SJ Aktiv 119 / 122 40% 3 26.10.2027 -
Julián Cosi Madryn Aktiv 108 / 115 40% 2 26.10.2027 -
Alejo Tabares All Boys Aktiv 111 / 107 40% 1 26.10.2027 -
Leonardo Gonzalez Cortulua Aktiv 121 / 128 40% 2 24.10.2027 -
Tomás Rojas Atlanta Aktiv 109 / 114 40% 3 24.10.2027 -
Wilmar Hurtado Millonarios Aktiv 130 / 124 40% 3 24.10.2027 -
Nicolás Gil America de Cali Aktiv 112 / 117 40% 2 23.10.2027 -
Sebastian Murillo La Equidad Aktiv 111 / 122 40% 2 23.10.2027 -
Matías Machado Racing Aktiv 117 / 123 40% 1 23.10.2027 -
Bryan Caicedo Leones Aktiv 110 / 114 40% 3 22.10.2027 -
Léider Riascos Atletico Bucaramanga Aktiv 118 / 124 40% 5 22.10.2027 -
Lucas Monzón Alvarado Aktiv 118 / 102 40% 1 19.10.2027 -
Alejandro Molina Tristán Suárez Aktiv 111 / 117 40% 2 18.10.2027 -
Cristian Trujillo Deportes Tolima Aktiv 113 / 116 40% 1 18.10.2027 -
Tiago Gordillo San Miguel Aktiv 79 / 101 40% 1 17.10.2027 -
Mateo Peralta Danubio Aktiv 109 / 124 40% 5 16.10.2027 -
Matías Lozano Deportivo Pasto Aktiv 110 / 117 40% 4 16.10.2027 -
Jorman Campuzano Atletico Nacional Aktiv 119 / 118 40% 2 12.10.2027 -
Maren Kefas Plateau United Aktiv 96 / 101 40% 3 12.10.2027 -
Tomás Ferreyra Defensores Unidos Aktiv 111 / 123 40% 1 07.10.2027 -
Andrés Tello Deportes Quindio Aktiv 106 / 113 40% 1 06.10.2027 -
Gonzalo Asis Almagro Aktiv 111 / 112 40% 1 04.10.2027 -
Hassan Beja AFC Leopards Aktiv 76 / 102 40% 1 03.10.2027 -
Wisdom Udom Bendel Insurance Aktiv 83 / 89 40% 2 02.10.2027 -
Esteban de Lima Tacuarembo Aktiv 89 / 100 40% 1 29.09.2027 -
Dylan Cabral Arsenal Aktiv 100 / 113 40% 2 23.09.2027 -
Mauro Osores San Martín SJ Aktiv 106 / 123 40% 1 15.09.2027 -
Braian Aranda Agropecuario Argentino Aktiv 116 / 108 40% 1 14.09.2027 -
Franco Camargo Gimnasia y Esgrima Aktiv 106 / 106 40% 1 13.09.2027 -
James Cardona La Equidad Aktiv 148 / 149 40% 1 13.09.2027 -
Brandon Álvarez Penarol Aktiv 86 / 109 40% 1 10.09.2027 -
Diogo Guzmán Montevideo City Torque Aktiv 119 / 106 40% 1 08.09.2027 -
Sadiq Auwal Niger Tornadoes Aktiv 85 / 93 40% 1 08.09.2027 -
Christos Mouzakitis Hull City Aktiv 138 / 131 40% 4 19.07.2027 Beobachten
Quinten Timber Crystal Palace Aktiv 152 / 151 40% 1 19.07.2027 -
Adam Idah Swansea City Aktiv 131 / 107 40% 2 28.06.2027 -
Ismaïla Sarr Crystal Palace Aktiv 140 / 145 40% 1 28.06.2027 -
Tyreece Campbell Charlton Athletic Aktiv 131 / 108 40% 1 28.06.2027 -
Dion Beljo Standard Liege Verhandlung 131 / 132 66% 1 01.06.2027 Befürworten
Jesús Rodríguez Como Aktiv 149 / 148 40% 2 30.05.2027 -
Teden Mengi Luton Town Aktiv 130 / 132 40% 4 29.05.2027 -
Radinio Balker Huddersfield Town Aktiv 112 / 133 40% 4 29.05.2027 -
Ethan Williams Peterborough United Aktiv 104 / 119 40% 2 29.05.2027 -
Bosun Lawal Stoke City Aktiv 121 / 126 40% 3 28.05.2027 -
Josh Tymon Swansea City Aktiv 122 / 114 40% 6 28.05.2027 -
Richard Koné Queens Park Rangers Aktiv 126 / 139 40% 3 28.05.2027 -
Shea Charles Southampton Aktiv 136 / 122 40% 2 28.05.2027 -
Harry Leonard Peterborough United Aktiv 112 / 123 40% 1 28.05.2027 -
Tommy Conway Middlesbrough Aktiv 128 / 141 40% 1 28.05.2027 -
Hamza Choudhury Leicester City Aktiv 120 / 135 40% 4 27.05.2027 -
Joel McGregor Swindon Town Aktiv 98 / 97 40% 3 26.05.2027 -
Oscar Schwartau Norwich City Aktiv 120 / 120 40% 2 26.05.2027 -
Kane Wilson Milton Keynes Dons Aktiv 114 / 101 40% 2 25.05.2027 -
Tyrese Campbell Sheffield United Aktiv 126 / 134 40% 2 24.05.2027 -
Ross McCrorie Bristol City Aktiv 128 / 114 40% 3 24.05.2027 -
Imrân Louza Watford Aktiv 141 / 143 40% 2 24.05.2027 -
Ilyas Ansah Hull City Aktiv 137 / 127 40% 2 24.05.2027 -
Ethan Pye Stockport County Aktiv 116 / 118 40% 1 24.05.2027 -
Florentino Luís Ipswich Town Aktiv 152 / 133 40% 5 22.05.2027 -
Luke McNally Bristol City Aktiv 128 / 147 40% 2 22.05.2027 -
Guillem Molina Huesca Aktiv 102 / 119 40% 4 22.05.2027 -
Dara O'Shea Ipswich Town Aktiv 125 / 148 40% 4 21.05.2027 -
James Morris Leyton Orient Aktiv 106 / 131 40% 1 21.05.2027 -
Othmane Maamma Watford Aktiv 126 / 140 40% 1 21.05.2027 -
Leo Castledine Middlesbrough Aktiv 125 / 128 40% 1 21.05.2027 -
Josh King Chelsea Aktiv 134 / 163 40% 1 21.05.2027 -
Shea Lacey Wolverhampton Aktiv 134 / 124 40% 3 20.05.2027 -
Dom Ballard Leyton Orient Aktiv 121 / 117 40% 2 19.05.2027 -
Lorent Tolaj Plymouth Argyle Aktiv 132 / 130 40% 3 17.05.2027 -
Yousef Salech Cardiff City Aktiv 136 / 132 40% 1 17.05.2027 -
Lander Astiazarán Real Sociedad Aktiv 115 / 122 40% 1 16.05.2027 -
Lynden Edhart Cambuur Aktiv 110 / 125 40% 1 16.05.2027 -
Gilberto Mora Atlético Madrid Aktiv 140 / 137 40% 1 16.05.2027 -
Bojan Radulović Huddersfield Town Aktiv 123 / 110 40% 2 15.05.2027 -
Igor Burnley Aktiv 135 / 159 40% 1 15.05.2027 -
Marezi Portsmouth Aktiv 130 / 115 40% 1 15.05.2027 -
Harry Clarke Preston Aktiv 133 / 122 40% 2 13.05.2027 -
Matthew Sorinola Newport County Aktiv 118 / 125 40% 1 13.05.2027 -
Amaury Morales Pumas UNAM Aktiv 106 / 128 40% 1 13.05.2027 -
Hazeem Bakre Crawley Town Aktiv 76 / 90 40% 3 12.05.2027 -
Aidan Morris Middlesbrough Aktiv 124 / 131 40% 2 11.05.2027 -
Azor Matusiwa Ipswich Town Aktiv 141 / 145 40% 2 11.05.2027 -
Rayan Bournemouth Aktiv 135 / 154 40% 2 11.05.2027 -
Matías Gómez Granada Aktiv 115 / 118 40% 2 11.05.2027 -
Mandla Erasmus SuperSport United Aktiv 113 / 114 40% 2 10.05.2027 -
Yussif Saidu Zaragoza Aktiv 125 / 126 40% 3 10.05.2027 -
Tomás González Piast Aktiv 115 / 100 40% 2 09.05.2027 -
Saša Lukić Ipswich Town Aktiv 149 / 136 40% 1 09.05.2027 -
Rubén Duarte Legia Aktiv 125 / 146 40% 5 08.05.2027 -
Josh Edwards Charlton Athletic Aktiv 111 / 121 40% 2 08.05.2027 -
Japhet Tanganga Sheffield United Aktiv 139 / 138 40% 2 06.05.2027 -
Juan Mosquera Sheffield Wednesday Aktiv 127 / 108 40% 2 06.05.2027 -
Welington Southampton Aktiv 139 / 145 40% 2 04.05.2027 -
Max Bird Birmingham Aktiv 129 / 138 40% 3 02.05.2027 -
Ibrahim Maza Bayer Leverkusen Aktiv 147 / 162 40% 3 02.05.2027 -
Andrei Coubiş Lincoln City Aktiv 104 / 128 40% 1 02.05.2027 -
Franz-Ethan Meichtry Genoa Aktiv 110 / 125 40% 1 02.05.2027 -
Tomás Ribeiro Cultural Leonesa Aktiv 111 / 129 40% 5 01.05.2027 -
Tom Cannon Sheffield United Aktiv 122 / 125 40% 2 01.05.2027 -
Jofre Torrents Ajax Aktiv 126 / 126 40% 2 01.05.2027 -
Alessandro Buongiorno Sassuolo Aktiv 167 / 158 40% 1 01.05.2027 -
André Miranda Porto Aktiv 100 / 104 40% 1 01.05.2027 -
Luis Vázquez Birmingham Aktiv 122 / 110 40% 3 29.04.2027 -
Morgan Whittaker Middlesbrough Aktiv 142 / 124 40% 1 29.04.2027 -
Kenny Tete Fulham Aktiv 144 / 150 40% 4 28.04.2027 -
Marc Bola Watford Aktiv 122 / 124 40% 1 28.04.2027 -
Job Ochieng Real Sociedad Aktiv 114 / 110 40% 2 27.04.2027 -
Christian Saydee Wigan Athletic Aktiv 112 / 96 40% 1 27.04.2027 -
Kamarni Ryan Burton Albion Aktiv 101 / 107 40% 1 26.04.2027 -
Caolan Boyd-Munce Wycombe Wanderers Aktiv 111 / 99 40% 1 25.04.2027 -
Atsuki Ito Bolton Wanderers Aktiv 124 / 107 40% 2 24.04.2027 -
Habib Diarra Sunderland Aktiv 136 / 125 40% 1 23.04.2027 -
Jayden Luker Barnet Aktiv 85 / 107 40% 1 23.04.2027 -
David Ozoh Derby County Aktiv 128 / 114 40% 2 22.04.2027 -
Mandla Mahlangu Ajax Cape Town Aktiv 108 / 108 40% 3 21.04.2027 -
Chris Mepham West Bromwich Albion Aktiv 117 / 118 40% 1 20.04.2027 -
Edvin Austbø West Ham United Aktiv 122 / 121 40% 1 19.04.2027 -
Callum Doyle Wrexham Aktiv 123 / 123 40% 3 16.04.2027 -
Rhian Brewster Oxford United Aktiv 124 / 111 40% 1 16.04.2027 -
Will Lankshear Middlesbrough Aktiv 127 / 117 40% 1 14.04.2027 -
Ethan Galbraith Swansea City Aktiv 144 / 129 40% 1 12.04.2027 -
Lewis Ferguson Bologna Aktiv 147 / 130 40% 2 11.04.2027 -
Di'Shon Bernard Sheffield Wednesday Aktiv 116 / 107 40% 1 11.04.2027 -
Martim Cunha Porto Aktiv 98 / 89 40% 1 10.04.2027 -
Milan van Ewijk Mansfield Town Aktiv 137 / 147 40% 1 10.04.2027 -
Rob Atkinson Bristol City Aktiv 131 / 135 40% 3 09.04.2027 -
Kristoffer Lund Birmingham Aktiv 132 / 113 40% 1 08.04.2027 -
Darlin Yongwa Norwich City Aktiv 130 / 129 40% 1 08.04.2027 -
Percy Jali Free State Stars Aktiv 96 / 82 40% 1 08.04.2027 -
Caleb Yirenkyi Coventry City Aktiv 139 / 147 40% 1 08.04.2027 -
Eoin Toal Bolton Wanderers Aktiv 109 / 118 40% 1 07.04.2027 -
Rodrigo Mora AS Roma Aktiv 128 / 128 40% 1 07.04.2027 -
Charlie Webster Burton Albion Aktiv 106 / 114 40% 1 06.04.2027 -
Robert Mizo Ashanti Gold Aktiv 116 / 120 40% 2 05.04.2027 -
Oliver Skipp Leicester City Aktiv 120 / 130 40% 2 05.04.2027 -
Adnan Courtois KV Oostende Aktiv 134 / 131 40% 2 02.04.2027 -
Israel Reyes CSKA Moscow Aktiv 145 / 130 40% 1 29.03.2027 -
Paik Seung-Ho Birmingham Aktiv 122 / 129 40% 1 29.03.2027 -
Derry Murkin Derby County Aktiv 133 / 140 40% 1 26.03.2027 -
Andrea Carboni Monza Aktiv 125 / 137 40% 1 21.03.2027 -
Zak Swanson Bradford City Aktiv 113 / 111 40% 1 21.03.2027 -
Kellen Fisher Norwich City Aktiv 130 / 122 40% 1 19.03.2027 -
Williams Manyama SuperSport United Aktiv 114 / 111 40% 1 17.03.2027 -
Reda Khadra Qarabag Aktiv 140 / 112 40% 1 29.11.2026 -
Petar Stanić Ludogorets Aktiv 139 / 124 40% 2 27.11.2026 -
Jonás Luna Santa Clara Aktiv 127 / 123 40% 1 27.11.2026 -
Ruben van Bommel Ferencvaros Aktiv 126 / 124 40% 1 27.11.2026 -
Tomás Silva Platense Aktiv 120 / 118 40% 2 20.11.2026 -
Franco Zapiola Platense Aktiv 117 / 116 40% 1 20.11.2026 -
Martín Garay Tigre Aktiv 115 / 117 40% 2 08.11.2026 -
Christian Krasnodar Aktiv 136 / 122 40% 1 08.11.2026 -
Jaminton Campaz Rosario Central Aktiv 119 / 134 40% 1 08.11.2026 -
Derensili Sanches Fernandes Huddersfield Town Aktiv 124 / 113 40% 1 07.11.2026 -
Fernando Martínez Central Córdoba SdE Aktiv 111 / 115 40% 1 05.11.2026 -
Manuel Duarte Barracas Central Aktiv 115 / 117 40% 1 03.11.2026 -
Ramiro Ruiz Rodríguez Atlético Tucumán Aktiv 123 / 120 40% 2 01.11.2026 -
Tshepang Moremi Orlando Pirates Aktiv 111 / 121 40% 1 01.11.2026 -
Alexander Díaz Deportivo Riestra Aktiv 112 / 112 40% 1 23.10.2026 -
Aarón Molinas Defensa y Justicia Aktiv 120 / 114 40% 1 23.10.2026 -
Juan Velázquez Belgrano Aktiv 119 / 138 40% 1 22.10.2026 -
Siro Rosané Estudiantes Aktiv 118 / 111 40% 1 22.10.2026 -
Juan Cruz de los Santos Nacional Aktiv 130 / 125 40% 1 20.10.2026 -
Ignacio Rodríguez Racing Club Aktiv 120 / 123 40% 1 19.10.2026 -
Augusto Schott Talleres Aktiv 123 / 125 40% 1 19.10.2026 -
Valentín Depietri Talleres Aktiv 115 / 125 40% 1 17.10.2026 -
Matías Fernández Independiente Rivadavia Aktiv 120 / 120 40% 1 09.10.2026 -
Franco Ibarra Rosario Central Aktiv 130 / 119 40% 1 09.10.2026 -
Rui Modesto Vancouver Whitecaps Aktiv 124 / 123 40% 1 08.09.2026 -
Ian Garguez Palestino Aktiv 111 / 116 30% 1 / 1m 19.08.2026 -
Erico Cuello Defensor Sporting Aktiv 90 / 115 40% 1 01.08.2026 -
Teun Gijselhart Deportivo La Coruña Aktiv 96 / 93 40% 1 01.08.2026 -